Terminal Aerodrome Forecast
Issued by NWS Corpus Christi, TX

Home | Current Version | Previous Version | Text Only | Print | Product List | Glossary On
Versions: 1 2 3 4 5 6 7 8 9 10 11 12 13 14 15
000
FTUS44 KCRP 031743
TAFVCT
TAF
KVCT 031743Z 0318/0418 02008KT 6SM -RA BR BKN007 OVC015
     FM040100 02008KT 6SM -SHRA BR BKN008 OVC015
     FM040800 02015KT 6SM -RA BR BKN008 OVC015=

USA.gov is the U.S. government's official web portal to all federal, state and local government web resources and services.